createdAt,value
2023-05-18T00:00:14.902Z,8.50
2023-05-18T00:02:42.115Z,8.37
2023-05-18T00:05:10.666Z,7.80
2023-05-18T00:07:37.606Z,8.43
2023-05-18T00:10:04.514Z,8.60
2023-05-18T00:12:31.588Z,8.67
2023-05-18T00:14:58.092Z,8.30
2023-05-18T00:17:24.926Z,8.43
2023-05-18T00:19:51.999Z,9.07
2023-05-18T00:22:19.087Z,9.07
2023-05-18T00:24:46.622Z,8.73
2023-05-18T00:27:13.183Z,8.87
2023-05-18T00:29:39.860Z,9.53
2023-05-18T00:32:06.720Z,10.10
2023-05-18T00:34:33.298Z,9.63
2023-05-18T00:36:59.812Z,10.33
2023-05-18T00:39:26.318Z,9.23
2023-05-18T00:41:52.899Z,9.17
2023-05-18T00:44:19.414Z,9.97
2023-05-18T00:46:45.881Z,8.60
2023-05-18T00:49:12.717Z,9.73
2023-05-18T00:51:39.496Z,9.17
2023-05-18T00:54:06.567Z,10.37
2023-05-18T00:56:36.159Z,9.93
2023-05-18T00:59:03.493Z,9.43
2023-05-18T01:01:34.814Z,8.83
2023-05-18T01:04:02.877Z,8.70
2023-05-18T01:06:36.057Z,9.33
2023-05-18T01:09:05.649Z,9.00
2023-05-18T01:12:13.427Z,8.70
2023-05-18T01:14:49.819Z,9.30
2023-05-18T01:17:36.504Z,8.43
2023-05-18T01:20:17.526Z,9.10
2023-05-18T01:22:56.457Z,8.63
2023-05-18T01:25:44.219Z,8.83
2023-05-18T01:28:17.175Z,9.30
2023-05-18T01:30:44.221Z,8.43
2023-05-18T01:33:11.786Z,8.60
2023-05-18T01:35:41.736Z,8.67
2023-05-18T01:38:08.273Z,9.47
2023-05-18T01:40:43.765Z,8.90
2023-05-18T01:43:11.825Z,8.70
2023-05-18T01:45:40.382Z,8.37
2023-05-18T01:48:07.728Z,8.70
2023-05-18T01:50:39.785Z,8.37
2023-05-18T01:53:10.559Z,8.97
2023-05-18T01:55:38.105Z,9.73
2023-05-18T01:58:06.073Z,9.10
2023-05-18T02:00:33.108Z,9.40
2023-05-18T02:03:00.207Z,9.60
2023-05-18T02:05:27.358Z,8.87
2023-05-18T02:07:53.997Z,8.93
2023-05-18T02:10:20.621Z,9.53
2023-05-18T02:12:52.486Z,10.13
2023-05-18T02:15:19.449Z,8.77
2023-05-18T02:17:45.931Z,9.80
2023-05-18T02:20:12.566Z,9.60
2023-05-18T02:22:55.009Z,9.03
2023-05-18T02:25:21.815Z,9.97
2023-05-18T02:27:48.416Z,8.97
2023-05-18T02:30:16.062Z,10.00
2023-05-18T02:32:42.813Z,11.00
2023-05-18T02:35:10.289Z,9.87
2023-05-18T02:37:40.175Z,9.97
2023-05-18T02:40:10.578Z,9.43
2023-05-18T02:42:37.066Z,9.87
2023-05-18T02:45:03.736Z,9.33
2023-05-18T02:47:30.389Z,11.23
2023-05-18T02:49:56.969Z,10.17
2023-05-18T02:52:23.702Z,10.47
2023-05-18T02:54:50.369Z,9.47
2023-05-18T02:57:16.900Z,9.53
2023-05-18T02:59:43.717Z,9.57
2023-05-18T03:02:10.251Z,10.40
2023-05-18T03:04:37.935Z,9.90
2023-05-18T03:07:04.613Z,8.57
2023-05-18T03:09:31.154Z,9.90
2023-05-18T03:11:57.694Z,10.73
2023-05-18T03:14:24.183Z,10.53
2023-05-18T03:16:54.357Z,10.47
2023-05-18T03:19:21.188Z,8.87
2023-05-18T03:21:49.632Z,10.33
2023-05-18T03:24:16.227Z,10.60
2023-05-18T03:26:44.446Z,11.30
2023-05-18T03:29:13.293Z,10.37
2023-05-18T03:31:40.239Z,10.50
2023-05-18T03:34:06.802Z,10.03
2023-05-18T03:36:33.306Z,10.33
2023-05-18T03:38:59.811Z,8.90
2023-05-18T03:41:26.476Z,9.33
2023-05-18T03:43:53.055Z,10.63
2023-05-18T03:46:19.639Z,9.77
2023-05-18T03:48:46.246Z,9.93
2023-05-18T03:51:12.822Z,9.63
2023-05-18T03:53:39.703Z,10.03
2023-05-18T03:56:06.381Z,9.10
2023-05-18T03:58:33.140Z,9.80
2023-05-18T04:01:01.033Z,8.87
2023-05-18T04:03:27.671Z,9.87
2023-05-18T04:05:54.184Z,9.37
2023-05-18T04:08:20.724Z,9.57
2023-05-18T04:10:47.429Z,8.40
2023-05-18T04:13:13.920Z,9.30
2023-05-18T04:15:40.422Z,9.13
2023-05-18T04:18:08.312Z,9.67
2023-05-18T04:20:34.988Z,9.53
2023-05-18T04:23:01.592Z,8.93
2023-05-18T04:25:28.671Z,9.40
2023-05-18T04:27:56.285Z,9.83
2023-05-18T04:30:23.434Z,9.77
2023-05-18T04:32:50.276Z,7.90
2023-05-18T04:35:16.879Z,8.17
2023-05-18T04:37:43.415Z,8.50
2023-05-18T04:40:13.755Z,9.20
2023-05-18T04:42:45.591Z,9.17
2023-05-18T04:45:15.892Z,9.03
2023-05-18T04:47:43.134Z,8.67
2023-05-18T04:50:10.023Z,8.30
2023-05-18T04:52:37.014Z,9.17
2023-05-18T04:55:03.912Z,8.00
2023-05-18T04:57:31.052Z,8.57
2023-05-18T04:59:58.343Z,9.10
2023-05-18T05:02:24.939Z,8.40
2023-05-18T05:04:51.584Z,8.63
2023-05-18T05:07:18.112Z,8.87
2023-05-18T05:09:44.615Z,9.03
2023-05-18T05:12:11.195Z,9.33
2023-05-18T05:14:37.687Z,7.77
2023-05-18T05:17:04.278Z,9.17
2023-05-18T05:19:30.882Z,8.03
2023-05-18T05:21:57.445Z,9.20
2023-05-18T05:24:23.937Z,8.33
2023-05-18T05:26:50.466Z,9.53
2023-05-18T05:29:16.956Z,7.83
2023-05-18T05:31:43.525Z,9.00
2023-05-18T05:34:11.988Z,8.87
2023-05-18T05:36:39.338Z,8.97
2023-05-18T05:39:05.856Z,9.13
2023-05-18T05:41:32.579Z,8.53
2023-05-18T05:43:59.248Z,8.13
2023-05-18T05:46:25.983Z,8.30
2023-05-18T05:48:52.572Z,8.03
2023-05-18T05:51:19.045Z,7.53
2023-05-18T05:53:47.562Z,7.90
2023-05-18T05:56:14.051Z,8.00
2023-05-18T05:58:42.332Z,8.03
2023-05-18T06:01:08.941Z,8.27
2023-05-18T06:03:36.340Z,7.67
2023-05-18T06:06:02.936Z,7.63
2023-05-18T06:08:29.491Z,8.17
2023-05-18T06:10:56.000Z,7.77
2023-05-18T06:13:22.518Z,7.77
2023-05-18T06:15:49.011Z,7.73
2023-05-18T06:18:15.608Z,7.30
2023-05-18T06:20:42.179Z,8.40
2023-05-18T06:23:08.655Z,7.77
2023-05-18T06:25:35.467Z,8.47
2023-05-18T06:28:02.123Z,7.70
2023-05-18T06:30:28.642Z,7.87
2023-05-18T06:32:55.191Z,7.37
2023-05-18T06:35:21.887Z,7.40
2023-05-18T06:37:48.378Z,7.20
2023-05-18T06:40:14.888Z,7.17
2023-05-18T06:42:42.492Z,7.87
2023-05-18T06:45:09.233Z,7.33
2023-05-18T06:47:35.748Z,7.83
2023-05-18T06:50:02.372Z,7.10
2023-05-18T06:52:28.874Z,7.87
2023-05-18T06:54:55.468Z,7.70
2023-05-18T06:57:21.931Z,7.33
2023-05-18T06:59:53.591Z,7.53
2023-05-18T07:02:21.297Z,7.33
2023-05-18T07:04:48.682Z,6.50
2023-05-18T07:07:16.785Z,7.10
2023-05-18T07:09:45.496Z,7.23
2023-05-18T07:12:12.867Z,7.77
2023-05-18T07:14:39.393Z,7.73
2023-05-18T07:17:07.087Z,7.97
2023-05-18T07:19:35.203Z,6.77
2023-05-18T07:22:01.706Z,7.00
2023-05-18T07:24:28.236Z,7.00
2023-05-18T07:26:54.711Z,7.27
2023-05-18T07:29:21.250Z,6.83
2023-05-18T07:31:47.945Z,8.27
2023-05-18T07:34:14.850Z,6.87
2023-05-18T07:36:41.617Z,7.57
2023-05-18T07:39:09.057Z,6.73
2023-05-18T07:41:36.215Z,7.07
2023-05-18T07:44:02.687Z,7.63
2023-05-18T07:46:29.410Z,7.40
2023-05-18T07:48:56.015Z,7.20
2023-05-18T07:51:22.625Z,8.43
2023-05-18T07:53:49.090Z,7.70
2023-05-18T07:56:15.587Z,7.77
2023-05-18T07:58:42.109Z,6.73
2023-05-18T08:01:08.602Z,8.13
2023-05-18T08:03:35.194Z,7.80
2023-05-18T08:06:01.770Z,7.90
2023-05-18T08:08:28.851Z,6.93
2023-05-18T08:10:55.428Z,7.40
2023-05-18T08:13:22.163Z,6.97
2023-05-18T08:15:56.061Z,6.83
2023-05-18T08:18:30.148Z,6.63
2023-05-18T08:20:56.640Z,6.30
2023-05-18T08:23:24.981Z,6.50
2023-05-18T08:25:51.532Z,6.13
2023-05-18T08:28:17.994Z,5.73
2023-05-18T08:30:44.497Z,6.00
2023-05-18T08:33:11.106Z,5.90
2023-05-18T08:35:37.776Z,6.03
2023-05-18T08:38:05.640Z,6.60
2023-05-18T08:40:45.900Z,5.90
2023-05-18T08:43:22.648Z,6.37
2023-05-18T08:45:53.158Z,6.60
2023-05-18T08:48:20.665Z,6.10
2023-05-18T08:50:47.253Z,6.47
2023-05-18T08:53:14.045Z,6.13
2023-05-18T08:55:40.539Z,6.13
2023-05-18T08:58:08.054Z,5.97
2023-05-18T09:00:35.215Z,6.10
2023-05-18T09:03:04.569Z,6.30
2023-05-18T09:05:31.781Z,6.00
2023-05-18T09:07:58.790Z,6.33
2023-05-18T09:10:26.158Z,7.37
2023-05-18T09:12:52.965Z,6.47
2023-05-18T09:15:19.483Z,5.97
2023-05-18T09:17:46.078Z,7.10
2023-05-18T09:20:12.990Z,6.47
2023-05-18T09:22:42.890Z,6.57
2023-05-18T09:25:10.715Z,7.03
2023-05-18T09:27:37.876Z,6.70
2023-05-18T09:30:05.239Z,6.63
2023-05-18T09:32:36.357Z,6.37
2023-05-18T09:35:06.996Z,6.50
2023-05-18T09:37:34.219Z,5.90
2023-05-18T09:40:05.442Z,6.10
2023-05-18T09:42:42.826Z,6.80
2023-05-18T09:45:20.502Z,5.93
2023-05-18T09:47:47.557Z,6.43
2023-05-18T09:50:14.252Z,6.53
2023-05-18T09:52:45.136Z,6.70
2023-05-18T09:55:12.341Z,7.23
2023-05-18T09:57:44.081Z,7.27
2023-05-18T10:00:11.883Z,7.07
2023-05-18T10:02:45.480Z,6.53
2023-05-18T10:05:20.285Z,6.80
2023-05-18T10:07:47.316Z,7.03
2023-05-18T10:10:21.128Z,7.13
2023-05-18T10:12:48.364Z,6.47
2023-05-18T10:15:16.852Z,6.43
2023-05-18T10:17:45.043Z,6.97
2023-05-18T10:20:16.194Z,7.17
2023-05-18T10:22:45.762Z,6.50
2023-05-18T10:25:19.242Z,6.33
2023-05-18T10:27:47.877Z,6.67
2023-05-18T10:30:15.278Z,6.33
2023-05-18T10:32:42.971Z,7.40
2023-05-18T10:35:11.344Z,6.70
2023-05-18T10:37:44.096Z,6.67
2023-05-18T10:40:15.882Z,6.83
2023-05-18T10:42:43.078Z,6.63
2023-05-18T10:45:10.526Z,7.03
2023-05-18T10:47:42.434Z,6.90
2023-05-18T10:50:10.312Z,6.13
2023-05-18T10:52:38.656Z,7.37
2023-05-18T10:55:09.339Z,7.70
2023-05-18T10:57:47.398Z,10.47
2023-05-18T11:00:14.473Z,6.93
2023-05-18T11:02:43.154Z,6.23
2023-05-18T11:05:13.936Z,6.60
2023-05-18T11:07:42.001Z,6.97
2023-05-18T11:10:10.165Z,6.53
2023-05-18T11:12:38.449Z,7.10
2023-05-18T11:15:05.995Z,6.77
2023-05-18T11:17:32.672Z,7.10
2023-05-18T11:20:08.864Z,7.40
2023-05-18T11:22:47.890Z,6.50
2023-05-18T11:25:34.486Z,7.07
2023-05-18T11:28:10.195Z,7.70
2023-05-18T11:30:36.764Z,7.37
2023-05-18T11:33:11.157Z,9.17
2023-05-18T11:35:56.544Z,12.13
2023-05-18T11:38:23.813Z,7.00
2023-05-18T11:40:50.935Z,7.53
2023-05-18T11:43:21.654Z,7.60
2023-05-18T11:45:58.905Z,7.20
2023-05-18T11:48:27.292Z,8.17
2023-05-18T11:50:57.460Z,8.20
2023-05-18T11:53:27.797Z,7.73
2023-05-18T11:55:54.852Z,8.47
2023-05-18T11:58:24.266Z,7.53
2023-05-18T12:00:51.277Z,7.13
2023-05-18T12:03:19.117Z,6.97
2023-05-18T12:05:49.324Z,7.67
2023-05-18T12:08:19.427Z,6.70
2023-05-18T12:10:47.347Z,8.23
2023-05-18T12:13:14.956Z,14.83
2023-05-18T12:15:42.411Z,6.77
2023-05-18T12:18:08.975Z,6.23
2023-05-18T12:20:39.244Z,8.53
2023-05-18T12:23:05.866Z,7.03
2023-05-18T12:25:32.633Z,6.77
2023-05-18T12:27:59.440Z,6.47
2023-05-18T12:30:35.786Z,6.33
2023-05-18T12:33:03.343Z,7.10
2023-05-18T12:35:31.192Z,6.60
2023-05-18T12:38:00.568Z,6.13
2023-05-18T12:40:27.920Z,7.03
2023-05-18T12:43:00.951Z,6.10
2023-05-18T12:45:29.654Z,7.13
2023-05-18T12:47:56.518Z,6.63
2023-05-18T12:50:25.225Z,6.90
2023-05-18T12:52:52.074Z,6.63
2023-05-18T12:55:22.967Z,6.03
2023-05-18T12:58:16.900Z,6.77
2023-05-18T13:00:45.397Z,7.43
2023-05-18T13:03:22.195Z,6.63
2023-05-18T13:06:12.138Z,7.33
2023-05-18T13:08:38.692Z,15.70
2023-05-18T13:11:13.655Z,6.90
2023-05-18T13:13:58.160Z,8.10
2023-05-18T13:16:24.898Z,6.07
2023-05-18T13:18:59.475Z,6.27
2023-05-18T13:21:26.427Z,6.60
2023-05-18T13:23:53.283Z,6.03
2023-05-18T13:26:23.762Z,5.70
2023-05-18T13:28:52.440Z,6.20
2023-05-18T13:31:19.732Z,7.40
2023-05-18T13:33:46.941Z,7.50
2023-05-18T13:36:13.695Z,6.13
2023-05-18T13:38:41.475Z,6.77
2023-05-18T13:41:09.992Z,5.97
2023-05-18T13:43:36.518Z,6.10
2023-05-18T13:46:03.119Z,6.13
2023-05-18T13:48:30.380Z,6.50
2023-05-18T13:50:56.998Z,6.47
2023-05-18T13:53:23.824Z,5.90
2023-05-18T13:55:50.500Z,6.40
2023-05-18T13:58:17.044Z,6.30
2023-05-18T14:00:43.928Z,6.30
2023-05-18T14:03:10.600Z,6.47
2023-05-18T14:05:37.298Z,7.57
2023-05-18T14:08:03.999Z,6.57
2023-05-18T14:10:30.920Z,5.90
2023-05-18T14:12:57.727Z,6.53
2023-05-18T14:15:24.250Z,6.57
2023-05-18T14:17:50.797Z,6.03
2023-05-18T14:20:17.424Z,6.30
2023-05-18T14:22:43.936Z,7.97
2023-05-18T14:25:10.615Z,6.87
2023-05-18T14:27:37.116Z,6.77
2023-05-18T14:30:03.971Z,6.70
2023-05-18T14:32:30.512Z,5.67
2023-05-18T14:34:58.209Z,6.83
2023-05-18T14:37:25.096Z,6.03
2023-05-18T14:39:51.604Z,6.97
2023-05-18T14:42:18.103Z,9.33
2023-05-18T14:44:44.625Z,6.50
2023-05-18T14:47:11.227Z,5.43
2023-05-18T14:49:38.117Z,5.67
2023-05-18T14:52:05.097Z,5.60
2023-05-18T14:54:31.577Z,6.23
2023-05-18T14:56:58.110Z,5.60
2023-05-18T14:59:24.594Z,6.53
2023-05-18T15:01:51.198Z,6.70
2023-05-18T15:04:17.852Z,6.00
2023-05-18T15:06:44.384Z,5.83
2023-05-18T15:09:11.312Z,5.80
2023-05-18T15:11:37.835Z,7.53
2023-05-18T15:14:04.390Z,6.40
2023-05-18T15:16:30.945Z,6.27
2023-05-18T15:18:57.762Z,6.37
2023-05-18T15:21:24.287Z,5.67
2023-05-18T15:23:51.022Z,6.07
2023-05-18T15:26:17.511Z,6.20
2023-05-18T15:28:45.062Z,5.90
2023-05-18T15:31:11.808Z,5.67
2023-05-18T15:33:42.078Z,5.87
2023-05-18T15:36:08.935Z,5.37
2023-05-18T15:38:35.848Z,6.30
2023-05-18T15:41:02.403Z,6.17
2023-05-18T15:43:30.469Z,5.87
2023-05-18T15:45:58.086Z,6.00
2023-05-18T15:48:24.662Z,6.13
2023-05-18T15:50:51.172Z,5.63
2023-05-18T15:53:17.705Z,5.73
2023-05-18T15:55:44.232Z,5.60
2023-05-18T15:58:10.748Z,5.13
2023-05-18T16:00:37.284Z,5.07
2023-05-18T16:03:04.002Z,5.70
2023-05-18T16:05:30.533Z,5.80
2023-05-18T16:07:57.102Z,5.13
2023-05-18T16:10:23.708Z,5.77
2023-05-18T16:12:50.209Z,5.07
2023-05-18T16:15:16.805Z,5.87
2023-05-18T16:17:43.323Z,4.80
2023-05-18T16:20:10.171Z,5.73
2023-05-18T16:22:36.674Z,5.60
2023-05-18T16:25:03.386Z,5.57
2023-05-18T16:27:29.867Z,6.40
2023-05-18T16:29:56.391Z,5.73
2023-05-18T16:32:24.635Z,4.97
2023-05-18T16:34:51.234Z,5.47
2023-05-18T16:37:17.744Z,5.93
2023-05-18T16:39:44.356Z,6.03
2023-05-18T16:42:12.353Z,5.73
2023-05-18T16:44:38.872Z,6.67
2023-05-18T16:47:05.784Z,5.77
2023-05-18T16:49:32.302Z,7.50
2023-05-18T16:51:58.774Z,5.87
2023-05-18T16:54:25.389Z,5.90
2023-05-18T16:56:52.018Z,5.93
2023-05-18T16:59:18.581Z,6.13
2023-05-18T17:01:45.125Z,6.60
2023-05-18T17:04:11.884Z,6.20
2023-05-18T17:06:39.242Z,6.53
2023-05-18T17:09:07.435Z,8.57
2023-05-18T17:11:33.906Z,6.57
2023-05-18T17:14:01.552Z,8.47
2023-05-18T17:16:28.654Z,6.23
2023-05-18T17:18:57.733Z,6.93
2023-05-18T17:21:28.405Z,10.37
2023-05-18T17:23:55.143Z,6.40
2023-05-18T17:26:22.314Z,5.90
2023-05-18T17:28:49.173Z,6.37
2023-05-18T17:31:15.939Z,8.37
2023-05-18T17:33:47.077Z,6.93
2023-05-18T17:36:15.796Z,6.30
2023-05-18T17:38:42.299Z,6.17
2023-05-18T17:41:08.816Z,6.37
2023-05-18T17:43:35.409Z,6.20
2023-05-18T17:46:02.182Z,6.77
2023-05-18T17:48:28.704Z,7.37
2023-05-18T17:50:55.540Z,6.37
2023-05-18T17:53:22.587Z,6.57
2023-05-18T17:55:49.136Z,7.40
2023-05-18T17:58:15.663Z,7.00
2023-05-18T18:00:42.177Z,6.07
2023-05-18T18:03:10.550Z,6.40
2023-05-18T18:05:37.207Z,6.53
2023-05-18T18:08:03.724Z,6.90
2023-05-18T18:10:31.776Z,6.33
2023-05-18T18:12:58.732Z,8.17
2023-05-18T18:15:28.974Z,6.93
2023-05-18T18:17:56.550Z,7.40
2023-05-18T18:20:23.427Z,6.47
2023-05-18T18:22:49.940Z,6.97
2023-05-18T18:25:16.667Z,6.70
2023-05-18T18:27:43.687Z,6.70
2023-05-18T18:30:10.819Z,7.27
2023-05-18T18:32:37.439Z,6.30
2023-05-18T18:35:04.434Z,6.90
2023-05-18T18:37:30.966Z,7.33
2023-05-18T18:39:57.512Z,5.90
2023-05-18T18:42:24.030Z,6.53
2023-05-18T18:44:53.031Z,7.20
2023-05-18T18:47:19.552Z,6.57
2023-05-18T18:49:46.071Z,7.77
2023-05-18T18:52:13.730Z,7.57
2023-05-18T18:54:40.597Z,7.57
2023-05-18T18:57:07.171Z,8.00
2023-05-18T18:59:35.484Z,7.70
2023-05-18T19:02:02.068Z,7.63
2023-05-18T19:04:28.651Z,8.17
2023-05-18T19:06:55.970Z,7.50
2023-05-18T19:09:22.955Z,7.27
2023-05-18T19:11:49.435Z,8.43
2023-05-18T19:14:16.446Z,8.83
2023-05-18T19:16:43.120Z,6.83
2023-05-18T19:19:09.832Z,8.03
2023-05-18T19:21:36.571Z,7.93
2023-05-18T19:24:07.322Z,8.90
2023-05-18T19:26:34.581Z,8.43
2023-05-18T19:29:01.174Z,8.27
2023-05-18T19:31:27.807Z,7.30
2023-05-18T19:33:54.445Z,7.90
2023-05-18T19:36:21.131Z,7.73
2023-05-18T19:38:47.932Z,8.37
2023-05-18T19:41:14.664Z,7.90
2023-05-18T19:43:41.188Z,7.70
2023-05-18T19:46:07.838Z,8.37
2023-05-18T19:48:34.385Z,8.83
2023-05-18T19:51:00.942Z,8.47
2023-05-18T19:53:27.417Z,9.47
2023-05-18T19:55:53.919Z,8.33
2023-05-18T19:58:20.392Z,8.60
2023-05-18T20:00:46.886Z,9.10
2023-05-18T20:03:14.399Z,9.67
2023-05-18T20:05:43.677Z,9.57
2023-05-18T20:08:10.219Z,9.57
2023-05-18T20:10:36.730Z,9.30
2023-05-18T20:13:03.196Z,8.97
2023-05-18T20:15:32.327Z,10.17
2023-05-18T20:17:58.874Z,9.80
2023-05-18T20:20:30.443Z,10.53
2023-05-18T20:22:57.389Z,9.57
2023-05-18T20:25:24.928Z,9.70
2023-05-18T20:27:52.587Z,10.00
2023-05-18T20:30:19.076Z,10.13
2023-05-18T20:32:45.624Z,9.57
2023-05-18T20:35:13.118Z,9.30
2023-05-18T20:37:41.390Z,9.77
2023-05-18T20:40:09.691Z,10.47
2023-05-18T20:42:40.492Z,10.53
2023-05-18T20:45:07.978Z,10.20
2023-05-18T20:47:35.146Z,10.10
2023-05-18T20:50:03.283Z,10.10
2023-05-18T20:52:29.824Z,9.47
2023-05-18T20:54:56.360Z,10.63
2023-05-18T20:57:22.962Z,9.97
2023-05-18T20:59:49.424Z,10.10
2023-05-18T21:02:17.000Z,9.90
2023-05-18T21:04:43.473Z,10.00
2023-05-18T21:07:10.080Z,8.87
2023-05-18T21:09:36.593Z,10.60
2023-05-18T21:12:03.154Z,10.00
2023-05-18T21:14:29.639Z,9.63
2023-05-18T21:16:56.255Z,9.37
2023-05-18T21:19:22.869Z,8.90
2023-05-18T21:21:49.481Z,9.87
2023-05-18T21:24:15.946Z,10.00
2023-05-18T21:26:42.549Z,10.43
2023-05-18T21:29:09.923Z,9.63
2023-05-18T21:31:36.556Z,10.07
2023-05-18T21:34:03.139Z,10.00
2023-05-18T21:36:33.921Z,11.07
2023-05-18T21:39:01.675Z,9.70
2023-05-18T21:41:28.236Z,9.40
2023-05-18T21:43:54.730Z,10.37
2023-05-18T21:46:21.312Z,10.07
2023-05-18T21:48:47.936Z,10.33
2023-05-18T21:51:14.443Z,11.20
2023-05-18T21:53:40.932Z,10.13
2023-05-18T21:56:07.515Z,10.43
2023-05-18T21:58:34.896Z,9.10
2023-05-18T22:01:01.379Z,10.67
2023-05-18T22:03:28.628Z,9.53
2023-05-18T22:05:55.197Z,9.50
2023-05-18T22:08:21.882Z,10.17
2023-05-18T22:10:48.483Z,11.17
2023-05-18T22:13:15.001Z,10.30
2023-05-18T22:15:41.576Z,10.73
2023-05-18T22:18:08.885Z,10.77
2023-05-18T22:20:35.457Z,10.57
2023-05-18T22:23:03.391Z,12.37
2023-05-18T22:25:30.033Z,15.53
2023-05-18T22:27:56.783Z,15.30
2023-05-18T22:30:28.345Z,15.40
2023-05-18T22:32:55.698Z,15.20
2023-05-18T22:35:23.056Z,15.83
2023-05-18T22:37:49.590Z,14.43
2023-05-18T22:40:16.104Z,14.03
2023-05-18T22:42:42.624Z,13.80
2023-05-18T22:45:10.001Z,14.70
2023-05-18T22:47:39.145Z,13.23
2023-05-18T22:50:09.212Z,14.93
2023-05-18T22:52:36.789Z,14.00
2023-05-18T22:55:13.475Z,13.20
2023-05-18T22:57:44.036Z,16.53
2023-05-18T23:00:12.578Z,16.93
2023-05-18T23:02:40.059Z,15.83
2023-05-18T23:05:07.789Z,16.33
2023-05-18T23:07:37.847Z,16.33
2023-05-18T23:10:05.814Z,15.43
2023-05-18T23:12:33.414Z,14.90
2023-05-18T23:15:02.903Z,14.30
2023-05-18T23:17:33.614Z,14.50
2023-05-18T23:20:08.098Z,13.67
2023-05-18T23:22:34.938Z,13.47
2023-05-18T23:25:02.217Z,11.93
2023-05-18T23:27:29.436Z,12.63
2023-05-18T23:29:57.019Z,12.43
2023-05-18T23:32:23.922Z,11.83
2023-05-18T23:34:52.997Z,12.23
2023-05-18T23:37:20.993Z,12.17
2023-05-18T23:39:50.681Z,11.97
2023-05-18T23:42:19.395Z,11.63
2023-05-18T23:44:47.114Z,11.63
2023-05-18T23:47:14.993Z,12.87
2023-05-18T23:49:42.392Z,12.83
2023-05-18T23:52:09.901Z,12.20
2023-05-18T23:54:37.538Z,13.57
2023-05-18T23:57:04.626Z,12.57
2023-05-18T23:59:32.107Z,12.57
